sensor_id;sensor_type;location;lat;lon;timestamp;pressure;altitude;pressure_sealevel;temperature;humidity
55604;BME280;41468;48.838;9.330;2023-07-08T00:01:19;98358.03;;;22.42;41.00
55604;BME280;41468;48.838;9.330;2023-07-08T00:03:46;98357.47;;;22.47;40.89
55604;BME280;41468;48.838;9.330;2023-07-08T00:16:53;98343.59;;;22.22;41.90
55604;BME280;41468;48.838;9.330;2023-07-08T00:19:26;98346.56;;;22.15;42.09
55604;BME280;41468;48.838;9.330;2023-07-08T00:21:59;98348.25;;;22.25;41.58
55604;BME280;41468;48.838;9.330;2023-07-08T00:24:39;98334.91;;;22.20;41.37
55604;BME280;41468;48.838;9.330;2023-07-08T00:27:17;98334.19;;;22.16;41.35
55604;BME280;41468;48.838;9.330;2023-07-08T00:29:50;98323.34;;;22.21;41.17
55604;BME280;41468;48.838;9.330;2023-07-08T00:32:23;98325.56;;;22.26;40.89
55604;BME280;41468;48.838;9.330;2023-07-08T00:34:56;98331.00;;;22.17;41.25
55604;BME280;41468;48.838;9.330;2023-07-08T00:37:33;98329.41;;;22.16;40.99
55604;BME280;41468;48.838;9.330;2023-07-08T00:40:15;98335.22;;;22.09;41.21
55604;BME280;41468;48.838;9.330;2023-07-08T00:42:48;98328.59;;;22.19;40.97
55604;BME280;41468;48.838;9.330;2023-07-08T00:45:41;98328.00;;;22.12;41.29
55604;BME280;41468;48.838;9.330;2023-07-08T00:48:34;98335.88;;;22.13;41.01
55604;BME280;41468;48.838;9.330;2023-07-08T00:51:11;98337.53;;;22.11;41.29
55604;BME280;41468;48.838;9.330;2023-07-08T00:53:49;98344.53;;;22.02;41.74
55604;BME280;41468;48.838;9.330;2023-07-08T00:56:27;98357.78;;;21.98;41.95
55604;BME280;41468;48.838;9.330;2023-07-08T01:02:04;98354.00;;;22.05;41.45
55604;BME280;41468;48.838;9.330;2023-07-08T01:07:26;98351.78;;;22.00;41.57
55604;BME280;41468;48.838;9.330;2023-07-08T01:10:06;98349.44;;;21.86;41.42
55604;BME280;41468;48.838;9.330;2023-07-08T01:12:46;98353.66;;;21.90;41.51
55604;BME280;41468;48.838;9.330;2023-07-08T01:15:31;98354.63;;;21.71;42.97
55604;BME280;41468;48.838;9.330;2023-07-08T01:17:59;98354.72;;;21.67;42.58
55604;BME280;41468;48.838;9.330;2023-07-08T01:20:26;98351.06;;;21.70;42.22
55604;BME280;41468;48.838;9.330;2023-07-08T01:22:53;98340.28;;;21.72;42.36
55604;BME280;41468;48.838;9.330;2023-07-08T01:25:20;98340.19;;;21.63;42.80
55604;BME280;41468;48.838;9.330;2023-07-08T01:27:53;98343.50;;;21.58;42.94
55604;BME280;41468;48.838;9.330;2023-07-08T01:30:21;98349.81;;;21.58;43.46
55604;BME280;41468;48.838;9.330;2023-07-08T01:32:55;98355.34;;;21.46;42.82
55604;BME280;41468;48.838;9.330;2023-07-08T01:35:24;98351.44;;;21.43;43.16
55604;BME280;41468;48.838;9.330;2023-07-08T01:37:57;98350.41;;;21.37;43.46
55604;BME280;41468;48.838;9.330;2023-07-08T01:40:31;98347.16;;;21.26;44.31
55604;BME280;41468;48.838;9.330;2023-07-08T01:42:59;98350.47;;;21.21;44.51
55604;BME280;41468;48.838;9.330;2023-07-08T01:45:30;98340.06;;;21.08;45.02
55604;BME280;41468;48.838;9.330;2023-07-08T01:48:02;98340.88;;;20.92;45.31
55604;BME280;41468;48.838;9.330;2023-07-08T01:50:32;98345.06;;;20.84;45.33
55604;BME280;41468;48.838;9.330;2023-07-08T01:53:03;98334.84;;;20.81;46.00
55604;BME280;41468;48.838;9.330;2023-07-08T01:55:38;98338.34;;;20.69;46.69
55604;BME280;41468;48.838;9.330;2023-07-08T01:58:10;98339.97;;;20.83;45.36
55604;BME280;41468;48.838;9.330;2023-07-08T02:00:36;98337.97;;;20.83;45.27
55604;BME280;41468;48.838;9.330;2023-07-08T02:03:03;98333.97;;;20.84;45.87
55604;BME280;41468;48.838;9.330;2023-07-08T02:05:30;98335.03;;;20.74;46.27
55604;BME280;41468;48.838;9.330;2023-07-08T02:07:57;98334.94;;;20.78;46.03
55604;BME280;41468;48.838;9.330;2023-07-08T02:10:24;98344.06;;;20.62;46.85
55604;BME280;41468;48.838;9.330;2023-07-08T02:12:52;98341.16;;;20.49;47.60
55604;BME280;41468;48.838;9.330;2023-07-08T02:15:18;98341.00;;;20.40;47.72
55604;BME280;41468;48.838;9.330;2023-07-08T02:17:45;98343.56;;;20.30;47.39
55604;BME280;41468;48.838;9.330;2023-07-08T02:20:12;98346.03;;;20.28;47.97
55604;BME280;41468;48.838;9.330;2023-07-08T02:22:39;98339.25;;;20.46;46.33
55604;BME280;41468;48.838;9.330;2023-07-08T02:25:06;98335.63;;;20.49;46.44
55604;BME280;41468;48.838;9.330;2023-07-08T02:27:33;98334.94;;;20.45;46.49
55604;BME280;41468;48.838;9.330;2023-07-08T02:29:59;98343.41;;;20.38;47.98
55604;BME280;41468;48.838;9.330;2023-07-08T02:32:26;98341.69;;;20.27;48.46
55604;BME280;41468;48.838;9.330;2023-07-08T02:34:53;98342.03;;;20.29;48.57
55604;BME280;41468;48.838;9.330;2023-07-08T02:37:20;98347.22;;;20.27;49.19
55604;BME280;41468;48.838;9.330;2023-07-08T02:39:47;98355.13;;;20.29;49.12
55604;BME280;41468;48.838;9.330;2023-07-08T02:42:13;98356.88;;;20.03;50.60
55604;BME280;41468;48.838;9.330;2023-07-08T02:44:40;98360.88;;;20.02;49.84
55604;BME280;41468;48.838;9.330;2023-07-08T02:47:07;98360.38;;;20.07;49.15
55604;BME280;41468;48.838;9.330;2023-07-08T02:49:34;98354.28;;;20.12;49.53
55604;BME280;41468;48.838;9.330;2023-07-08T02:52:01;98368.47;;;19.98;49.23
55604;BME280;41468;48.838;9.330;2023-07-08T02:54:27;98368.84;;;20.00;49.67
55604;BME280;41468;48.838;9.330;2023-07-08T02:56:54;98365.44;;;19.92;49.39
55604;BME280;41468;48.838;9.330;2023-07-08T02:59:21;98367.06;;;19.90;50.26
55604;BME280;41468;48.838;9.330;2023-07-08T03:01:48;98365.91;;;19.71;51.04
55604;BME280;41468;48.838;9.330;2023-07-08T03:04:16;98374.06;;;19.78;50.86
55604;BME280;41468;48.838;9.330;2023-07-08T03:06:45;98381.94;;;19.79;51.43
55604;BME280;41468;48.838;9.330;2023-07-08T03:09:12;98378.53;;;19.72;51.99
55604;BME280;41468;48.838;9.330;2023-07-08T03:11:40;98388.47;;;19.69;51.40
55604;BME280;41468;48.838;9.330;2023-07-08T03:14:07;98394.78;;;19.90;49.26
55604;BME280;41468;48.838;9.330;2023-07-08T03:16:34;98408.56;;;19.93;48.83
55604;BME280;41468;48.838;9.330;2023-07-08T03:19:12;98412.22;;;20.06;49.85
55604;BME280;41468;48.838;9.330;2023-07-08T03:21:41;98413.75;;;19.91;52.01
55604;BME280;41468;48.838;9.330;2023-07-08T03:24:19;98401.19;;;19.86;50.83
55604;BME280;41468;48.838;9.330;2023-07-08T03:26:46;98406.00;;;19.82;51.68
55604;BME280;41468;48.838;9.330;2023-07-08T03:29:18;98399.56;;;19.69;51.54
55604;BME280;41468;48.838;9.330;2023-07-08T03:31:45;98393.59;;;19.51;52.10
55604;BME280;41468;48.838;9.330;2023-07-08T03:34:14;98397.25;;;19.44;52.80
55604;BME280;41468;48.838;9.330;2023-07-08T03:36:49;98406.94;;;19.56;51.15
55604;BME280;41468;48.838;9.330;2023-07-08T03:39:19;98405.16;;;19.46;52.78
55604;BME280;41468;48.838;9.330;2023-07-08T03:42:03;98390.94;;;19.43;52.99
55604;BME280;41468;48.838;9.330;2023-07-08T03:44:30;98383.84;;;19.42;53.87
55604;BME280;41468;48.838;9.330;2023-07-08T03:46:57;98389.50;;;19.55;51.05
55604;BME280;41468;48.838;9.330;2023-07-08T03:49:24;98398.63;;;19.56;51.52
55604;BME280;41468;48.838;9.330;2023-07-08T03:51:52;98396.41;;;19.47;52.17
55604;BME280;41468;48.838;9.330;2023-07-08T03:54:22;98377.47;;;19.46;52.62
55604;BME280;41468;48.838;9.330;2023-07-08T04:10:28;98401.03;;;19.54;53.46
55604;BME280;41468;48.838;9.330;2023-07-08T04:13:01;98410.22;;;19.71;52.12
55604;BME280;41468;48.838;9.330;2023-07-08T04:15:34;98404.56;;;19.54;53.71
55604;BME280;41468;48.838;9.330;2023-07-08T04:18:07;98394.06;;;19.46;52.54
55604;BME280;41468;48.838;9.330;2023-07-08T04:20:39;98396.28;;;19.54;52.00
55604;BME280;41468;48.838;9.330;2023-07-08T04:23:12;98396.56;;;19.40;54.30
55604;BME280;41468;48.838;9.330;2023-07-08T04:25:46;98399.81;;;19.55;51.87
55604;BME280;41468;48.838;9.330;2023-07-08T04:28:20;98404.38;;;19.65;51.23
55604;BME280;41468;48.838;9.330;2023-07-08T04:30:53;98411.00;;;19.71;52.37
55604;BME280;41468;48.838;9.330;2023-07-08T04:33:26;98399.91;;;19.71;50.76
55604;BME280;41468;48.838;9.330;2023-07-08T04:35:59;98405.09;;;19.89;49.97
55604;BME280;41468;48.838;9.330;2023-07-08T04:38:32;98402.00;;;20.03;48.47
55604;BME280;41468;48.838;9.330;2023-07-08T04:41:09;98390.69;;;20.14;48.15
55604;BME280;41468;48.838;9.330;2023-07-08T04:43:42;98396.94;;;20.18;48.59
55604;BME280;41468;48.838;9.330;2023-07-08T04:46:24;98385.97;;;20.31;47.75
55604;BME280;41468;48.838;9.330;2023-07-08T04:49:03;98384.91;;;20.41;47.80
55604;BME280;41468;48.838;9.330;2023-07-08T04:51:38;98383.06;;;20.55;47.10
55604;BME280;41468;48.838;9.330;2023-07-08T04:54:11;98386.66;;;20.51;47.78
55604;BME280;41468;48.838;9.330;2023-07-08T04:56:45;98383.66;;;20.62;47.31
55604;BME280;41468;48.838;9.330;2023-07-08T04:59:25;98377.06;;;20.72;46.87
55604;BME280;41468;48.838;9.330;2023-07-08T05:02:03;98383.47;;;20.86;47.17
55604;BME280;41468;48.838;9.330;2023-07-08T05:04:36;98403.94;;;20.92;47.40
55604;BME280;41468;48.838;9.330;2023-07-08T05:07:11;98406.22;;;20.81;49.06
55604;BME280;41468;48.838;9.330;2023-07-08T05:09:44;98398.56;;;20.68;50.88
55604;BME280;41468;48.838;9.330;2023-07-08T05:12:17;98393.88;;;20.65;50.52
55604;BME280;41468;48.838;9.330;2023-07-08T05:14:49;98397.38;;;20.86;49.49
55604;BME280;41468;48.838;9.330;2023-07-08T05:17:22;98393.56;;;20.80;49.42
55604;BME280;41468;48.838;9.330;2023-07-08T05:19:57;98393.56;;;20.80;49.38
55604;BME280;41468;48.838;9.330;2023-07-08T05:22:33;98378.69;;;21.03;48.95
55604;BME280;41468;48.838;9.330;2023-07-08T05:25:06;98390.34;;;21.27;46.96
55604;BME280;41468;48.838;9.330;2023-07-08T05:27:40;98405.59;;;21.51;46.82
55604;BME280;41468;48.838;9.330;2023-07-08T05:30:16;98404.56;;;21.74;46.58
55604;BME280;41468;48.838;9.330;2023-07-08T05:32:50;98391.25;;;21.82;46.37
55604;BME280;41468;48.838;9.330;2023-07-08T05:35:23;98395.09;;;21.72;46.30
55604;BME280;41468;48.838;9.330;2023-07-08T05:37:57;98398.47;;;21.79;47.51
55604;BME280;41468;48.838;9.330;2023-07-08T05:40:30;98393.38;;;22.03;46.90
55604;BME280;41468;48.838;9.330;2023-07-08T05:43:02;98413.00;;;22.25;46.46
55604;BME280;41468;48.838;9.330;2023-07-08T05:45:35;98423.81;;;22.49;47.03
55604;BME280;41468;48.838;9.330;2023-07-08T05:48:08;98456.41;;;22.74;47.20
55604;BME280;41468;48.838;9.330;2023-07-08T05:50:41;98425.69;;;22.52;48.54
55604;BME280;41468;48.838;9.330;2023-07-08T05:53:14;98428.38;;;22.30;47.74
55604;BME280;41468;48.838;9.330;2023-07-08T05:55:48;98432.00;;;22.27;47.53
55604;BME280;41468;48.838;9.330;2023-07-08T05:58:15;98450.63;;;22.30;47.92
55604;BME280;41468;48.838;9.330;2023-07-08T06:00:56;98449.72;;;22.20;49.16
55604;BME280;41468;48.838;9.330;2023-07-08T06:03:24;98442.88;;;22.09;50.03
55604;BME280;41468;48.838;9.330;2023-07-08T06:05:52;98439.00;;;22.19;50.24
55604;BME280;41468;48.838;9.330;2023-07-08T06:08:19;98449.72;;;22.33;50.06
55604;BME280;41468;48.838;9.330;2023-07-08T06:10:46;98453.31;;;22.46;49.93
55604;BME280;41468;48.838;9.330;2023-07-08T06:13:13;98459.97;;;22.75;50.11
55604;BME280;41468;48.838;9.330;2023-07-08T06:15:51;98452.06;;;22.99;46.10
55604;BME280;41468;48.838;9.330;2023-07-08T06:18:18;98461.00;;;23.41;46.66
55604;BME280;41468;48.838;9.330;2023-07-08T06:20:51;98445.25;;;23.69;43.49
55604;BME280;41468;48.838;9.330;2023-07-08T06:23:19;98457.88;;;23.96;43.40
55604;BME280;41468;48.838;9.330;2023-07-08T06:25:46;98458.66;;;24.18;43.43
55604;BME280;41468;48.838;9.330;2023-07-08T06:28:12;98451.84;;;24.51;42.64
55604;BME280;41468;48.838;9.330;2023-07-08T06:30:39;98450.88;;;24.85;41.74
55604;BME280;41468;48.838;9.330;2023-07-08T06:33:06;98459.03;;;25.10;41.25
55604;BME280;41468;48.838;9.330;2023-07-08T06:35:33;98446.03;;;25.35;41.26
55604;BME280;41468;48.838;9.330;2023-07-08T06:38:00;98447.75;;;25.60;40.63
55604;BME280;41468;48.838;9.330;2023-07-08T06:40:27;98446.66;;;25.67;40.65
55604;BME280;41468;48.838;9.330;2023-07-08T06:42:53;98459.56;;;25.92;40.00
55604;BME280;41468;48.838;9.330;2023-07-08T06:45:20;98462.22;;;25.95;40.18
55604;BME280;41468;48.838;9.330;2023-07-08T06:47:47;98459.72;;;26.07;41.28
55604;BME280;41468;48.838;9.330;2023-07-08T06:50:14;98461.25;;;26.08;40.11
55604;BME280;41468;48.838;9.330;2023-07-08T06:52:41;98467.16;;;26.00;40.36
55604;BME280;41468;48.838;9.330;2023-07-08T06:55:09;98468.75;;;25.74;40.50
55604;BME280;41468;48.838;9.330;2023-07-08T06:57:37;98471.97;;;25.82;40.11
55604;BME280;41468;48.838;9.330;2023-07-08T07:00:08;98478.81;;;26.08;40.18
55604;BME280;41468;48.838;9.330;2023-07-08T07:02:36;98475.53;;;26.19;39.36
55604;BME280;41468;48.838;9.330;2023-07-08T07:05:04;98491.72;;;26.06;39.42
55604;BME280;41468;48.838;9.330;2023-07-08T07:07:30;98492.50;;;26.06;39.44
55604;BME280;41468;48.838;9.330;2023-07-08T07:09:57;98486.75;;;26.00;39.51
55604;BME280;41468;48.838;9.330;2023-07-08T07:12:25;98486.59;;;26.04;40.09
55604;BME280;41468;48.838;9.330;2023-07-08T07:14:52;98486.75;;;26.00;41.26
55604;BME280;41468;48.838;9.330;2023-07-08T07:17:23;98487.22;;;25.90;40.39
55604;BME280;41468;48.838;9.330;2023-07-08T07:19:51;98495.44;;;25.75;41.23
55604;BME280;41468;48.838;9.330;2023-07-08T07:22:18;98498.41;;;25.71;42.75
55604;BME280;41468;48.838;9.330;2023-07-08T07:24:45;98500.41;;;25.52;41.19
55604;BME280;41468;48.838;9.330;2023-07-08T07:27:22;98498.56;;;25.59;41.71
55604;BME280;41468;48.838;9.330;2023-07-08T07:29:50;98502.28;;;25.65;41.71
55604;BME280;41468;48.838;9.330;2023-07-08T07:32:19;98497.16;;;25.63;42.16
55604;BME280;41468;48.838;9.330;2023-07-08T07:34:49;98492.16;;;25.49;41.81
55604;BME280;41468;48.838;9.330;2023-07-08T07:37:18;98499.13;;;25.35;41.98
55604;BME280;41468;48.838;9.330;2023-07-08T07:39:45;98494.34;;;25.45;42.46
55604;BME280;41468;48.838;9.330;2023-07-08T07:42:14;98494.19;;;25.39;43.72
55604;BME280;41468;48.838;9.330;2023-07-08T07:44:43;98502.56;;;25.39;42.89
55604;BME280;41468;48.838;9.330;2023-07-08T07:47:10;98494.19;;;25.48;43.08
55604;BME280;41468;48.838;9.330;2023-07-08T07:49:37;98502.88;;;25.60;43.19
55604;BME280;41468;48.838;9.330;2023-07-08T07:52:05;98506.47;;;25.60;43.38
55604;BME280;41468;48.838;9.330;2023-07-08T07:54:32;98503.19;;;25.71;42.96
55604;BME280;41468;48.838;9.330;2023-07-08T07:56:59;98503.06;;;25.74;44.14
55604;BME280;41468;48.838;9.330;2023-07-08T07:59:26;98495.59;;;25.71;42.44
55604;BME280;41468;48.838;9.330;2023-07-08T08:01:53;98504.13;;;26.14;43.50
55604;BME280;41468;48.838;9.330;2023-07-08T08:04:20;98509.22;;;26.43;41.22
55604;BME280;41468;48.838;9.330;2023-07-08T08:06:46;98507.28;;;26.77;41.93
55604;BME280;41468;48.838;9.330;2023-07-08T08:09:14;98508.53;;;26.66;41.63
55604;BME280;41468;48.838;9.330;2023-07-08T08:11:40;98514.84;;;26.85;42.78
55604;BME280;41468;48.838;9.330;2023-07-08T08:14:07;98508.78;;;27.20;41.31
55604;BME280;41468;48.838;9.330;2023-07-08T08:16:34;98496.41;;;27.36;41.97
55604;BME280;41468;48.838;9.330;2023-07-08T08:19:01;98497.38;;;27.72;40.39
55604;BME280;41468;48.838;9.330;2023-07-08T08:21:30;98493.19;;;28.06;40.25
55604;BME280;41468;48.838;9.330;2023-07-08T08:23:57;98501.16;;;28.23;41.06
55604;BME280;41468;48.838;9.330;2023-07-08T08:26:25;98492.75;;;28.37;38.67
55604;BME280;41468;48.838;9.330;2023-07-08T08:28:52;98502.22;;;28.40;38.50
55604;BME280;41468;48.838;9.330;2023-07-08T08:31:19;98505.50;;;28.83;37.16
55604;BME280;41468;48.838;9.330;2023-07-08T08:33:46;98505.38;;;29.07;39.48
55604;BME280;41468;48.838;9.330;2023-07-08T08:36:12;98503.91;;;29.32;38.58
55604;BME280;41468;48.838;9.330;2023-07-08T08:38:39;98511.31;;;29.70;36.74
55604;BME280;41468;48.838;9.330;2023-07-08T08:41:13;98511.13;;;30.00;37.17
55604;BME280;41468;48.838;9.330;2023-07-08T08:43:41;98503.31;;;30.10;36.47
55604;BME280;41468;48.838;9.330;2023-07-08T08:49:02;98501.19;;;30.25;35.78
55604;BME280;41468;48.838;9.330;2023-07-08T08:51:32;98503.00;;;30.60;35.37
55604;BME280;41468;48.838;9.330;2023-07-08T08:53:59;98508.22;;;30.41;35.16
55604;BME280;41468;48.838;9.330;2023-07-08T08:56:31;98516.56;;;30.56;36.58
55604;BME280;41468;48.838;9.330;2023-07-08T08:59:20;98513.66;;;30.45;35.50
55604;BME280;41468;48.838;9.330;2023-07-08T09:01:49;98510.28;;;30.72;35.17
55604;BME280;41468;48.838;9.330;2023-07-08T09:04:31;98514.28;;;30.92;34.73
55604;BME280;41468;48.838;9.330;2023-07-08T09:07:08;98507.16;;;30.65;34.58
55604;BME280;41468;48.838;9.330;2023-07-08T09:09:57;98510.66;;;30.02;35.60
55604;BME280;41468;48.838;9.330;2023-07-08T09:12:29;98501.72;;;29.42;35.74
55604;BME280;41468;48.838;9.330;2023-07-08T09:14:57;98513.78;;;29.42;36.60
55604;BME280;41468;48.838;9.330;2023-07-08T09:17:29;98508.56;;;29.76;36.13
55604;BME280;41468;48.838;9.330;2023-07-08T09:20:09;98509.78;;;29.69;36.52
55604;BME280;41468;48.838;9.330;2023-07-08T09:22:54;98518.06;;;29.79;35.72
55604;BME280;41468;48.838;9.330;2023-07-08T09:25:32;98517.13;;;29.87;35.73
55604;BME280;41468;48.838;9.330;2023-07-08T09:28:00;98513.38;;;29.70;35.93
55604;BME280;41468;48.838;9.330;2023-07-08T09:30:27;98516.19;;;29.70;35.56
55604;BME280;41468;48.838;9.330;2023-07-08T09:32:57;98515.00;;;30.23;34.98
55604;BME280;41468;48.838;9.330;2023-07-08T09:35:38;98516.94;;;30.69;34.41
55604;BME280;41468;48.838;9.330;2023-07-08T09:38:12;98510.78;;;31.02;34.48
55604;BME280;41468;48.838;9.330;2023-07-08T09:40:46;98508.25;;;30.73;33.47
55604;BME280;41468;48.838;9.330;2023-07-08T09:43:25;98497.00;;;31.10;34.01
55604;BME280;41468;48.838;9.330;2023-07-08T09:45:57;98497.31;;;31.23;33.60
55604;BME280;41468;48.838;9.330;2023-07-08T09:48:27;98498.06;;;31.67;32.75
55604;BME280;41468;48.838;9.330;2023-07-08T09:50:56;98499.13;;;31.81;32.33
55604;BME280;41468;48.838;9.330;2023-07-08T09:53:24;98498.97;;;32.12;32.91
55604;BME280;41468;48.838;9.330;2023-07-08T09:55:55;98500.00;;;32.32;32.62
55604;BME280;41468;48.838;9.330;2023-07-08T09:58:30;98505.69;;;32.43;32.56
55604;BME280;41468;48.838;9.330;2023-07-08T10:01:01;98492.53;;;32.06;32.61
55604;BME280;41468;48.838;9.330;2023-07-08T10:03:34;98496.94;;;32.35;32.38
55604;BME280;41468;48.838;9.330;2023-07-08T10:06:05;98495.66;;;32.42;31.65
55604;BME280;41468;48.838;9.330;2023-07-08T10:08:43;98499.19;;;31.92;31.57
55604;BME280;41468;48.838;9.330;2023-07-08T10:13:46;98488.56;;;31.70;31.40
55604;BME280;41468;48.838;9.330;2023-07-08T10:16:34;98492.69;;;31.75;31.02
55604;BME280;41468;48.838;9.330;2023-07-08T10:19:04;98494.63;;;32.34;31.46
55604;BME280;41468;48.838;9.330;2023-07-08T10:22:03;98500.47;;;32.02;31.64
55604;BME280;41468;48.838;9.330;2023-07-08T10:27:31;98497.25;;;31.61;33.34
55604;BME280;41468;48.838;9.330;2023-07-08T10:46:01;98497.59;;;31.25;34.40
55604;BME280;41468;48.838;9.330;2023-07-08T10:51:50;98500.66;;;30.53;35.67
55604;BME280;41468;48.838;9.330;2023-07-08T10:54:43;98501.44;;;30.27;35.29
55604;BME280;41468;48.838;9.330;2023-07-08T10:57:20;98494.63;;;31.03;34.68
55604;BME280;41468;48.838;9.330;2023-07-08T11:08:01;98492.56;;;32.40;32.54
55604;BME280;41468;48.838;9.330;2023-07-08T11:13:13;98490.81;;;32.60;32.17
55604;BME280;41468;48.838;9.330;2023-07-08T11:21:22;98481.56;;;32.76;30.79
55604;BME280;41468;48.838;9.330;2023-07-08T11:23:56;98488.22;;;32.90;31.11
55604;BME280;41468;48.838;9.330;2023-07-08T11:26:29;98485.38;;;32.90;30.61
55604;BME280;41468;48.838;9.330;2023-07-08T11:28:58;98489.25;;;32.59;30.83
55604;BME280;41468;48.838;9.330;2023-07-08T11:31:27;98488.19;;;33.12;30.49
55604;BME280;41468;48.838;9.330;2023-07-08T11:33:56;98481.31;;;32.57;30.48
55604;BME280;41468;48.838;9.330;2023-07-08T11:36:24;98482.06;;;32.58;30.53
55604;BME280;41468;48.838;9.330;2023-07-08T11:38:54;98477.94;;;32.36;31.31
55604;BME280;41468;48.838;9.330;2023-07-08T11:41:24;98484.63;;;32.78;30.67
55604;BME280;41468;48.838;9.330;2023-07-08T11:43:56;98479.47;;;32.88;31.26
55604;BME280;41468;48.838;9.330;2023-07-08T11:46:29;98474.56;;;33.16;30.50
55604;BME280;41468;48.838;9.330;2023-07-08T11:49:12;98474.19;;;33.54;30.53
55604;BME280;41468;48.838;9.330;2023-07-08T11:51:43;98474.69;;;33.47;29.85
55604;BME280;41468;48.838;9.330;2023-07-08T11:56:57;98480.47;;;32.96;29.68
55604;BME280;41468;48.838;9.330;2023-07-08T11:59:26;98475.13;;;32.53;30.12
55604;BME280;41468;48.838;9.330;2023-07-08T12:02:24;98471.25;;;32.33;30.47
55604;BME280;41468;48.838;9.330;2023-07-08T12:05:12;98472.28;;;32.25;30.96
55604;BME280;41468;48.838;9.330;2023-07-08T12:07:42;98469.47;;;32.19;30.62
55604;BME280;41468;48.838;9.330;2023-07-08T12:10:30;98460.47;;;32.43;30.22
55604;BME280;41468;48.838;9.330;2023-07-08T12:12:58;98452.75;;;32.77;30.65
55604;BME280;41468;48.838;9.330;2023-07-08T12:15:26;98450.19;;;33.02;29.77
55604;BME280;41468;48.838;9.330;2023-07-08T12:17:58;98453.38;;;33.40;29.74
55604;BME280;41468;48.838;9.330;2023-07-08T12:20:32;98441.31;;;33.28;29.12
55604;BME280;41468;48.838;9.330;2023-07-08T12:22:59;98441.88;;;33.21;29.66
55604;BME280;41468;48.838;9.330;2023-07-08T12:25:30;98447.25;;;33.25;29.86
55604;BME280;41468;48.838;9.330;2023-07-08T12:27:58;98445.91;;;33.42;29.50
55604;BME280;41468;48.838;9.330;2023-07-08T12:30:27;98449.94;;;33.53;29.07
55604;BME280;41468;48.838;9.330;2023-07-08T12:32:55;98445.25;;;33.08;28.84
55604;BME280;41468;48.838;9.330;2023-07-08T12:35:28;98449.13;;;33.69;28.61
55604;BME280;41468;48.838;9.330;2023-07-08T12:38:03;98436.53;;;33.70;28.51
55604;BME280;41468;48.838;9.330;2023-07-08T12:40:32;98446.28;;;32.94;28.62
55604;BME280;41468;48.838;9.330;2023-07-08T12:42:59;98447.03;;;33.17;28.67
55604;BME280;41468;48.838;9.330;2023-07-08T12:45:30;98431.25;;;33.38;29.03
55604;BME280;41468;48.838;9.330;2023-07-08T12:47:57;98442.31;;;33.36;29.34
55604;BME280;41468;48.838;9.330;2023-07-08T12:50:24;98426.75;;;32.90;28.74
55604;BME280;41468;48.838;9.330;2023-07-08T12:52:51;98430.78;;;33.23;29.36
55604;BME280;41468;48.838;9.330;2023-07-08T12:55:18;98429.47;;;33.35;28.91
55604;BME280;41468;48.838;9.330;2023-07-08T12:57:50;98432.53;;;33.43;29.03
55604;BME280;41468;48.838;9.330;2023-07-08T13:00:39;98427.00;;;33.09;29.32
55604;BME280;41468;48.838;9.330;2023-07-08T13:03:14;98422.06;;;33.15;29.19
55604;BME280;41468;48.838;9.330;2023-07-08T13:05:42;98423.19;;;33.59;28.60
55604;BME280;41468;48.838;9.330;2023-07-08T13:08:23;98421.59;;;33.11;28.85
55604;BME280;41468;48.838;9.330;2023-07-08T13:10:57;98422.59;;;33.19;29.45
55604;BME280;41468;48.838;9.330;2023-07-08T13:13:28;98426.31;;;33.44;29.16
55604;BME280;41468;48.838;9.330;2023-07-08T13:15:57;98418.56;;;33.62;28.49
55604;BME280;41468;48.838;9.330;2023-07-08T13:18:37;98417.44;;;33.76;28.44
55604;BME280;41468;48.838;9.330;2023-07-08T13:21:08;98411.56;;;33.05;29.45
55604;BME280;41468;48.838;9.330;2023-07-08T13:23:36;98421.13;;;32.79;29.18
55604;BME280;41468;48.838;9.330;2023-07-08T13:28:59;98415.00;;;33.56;28.58
55604;BME280;41468;48.838;9.330;2023-07-08T13:31:32;98420.47;;;33.84;29.52
55604;BME280;41468;48.838;9.330;2023-07-08T13:34:07;98412.53;;;33.77;28.52
55604;BME280;41468;48.838;9.330;2023-07-08T13:36:39;98411.50;;;33.27;28.33
55604;BME280;41468;48.838;9.330;2023-07-08T13:39:09;98413.97;;;33.42;28.24
55604;BME280;41468;48.838;9.330;2023-07-08T13:41:43;98414.16;;;33.67;27.81
55604;BME280;41468;48.838;9.330;2023-07-08T13:44:10;98408.03;;;33.51;27.64
55604;BME280;41468;48.838;9.330;2023-07-08T13:46:40;98417.31;;;33.93;28.16
55604;BME280;41468;48.838;9.330;2023-07-08T13:49:24;98410.63;;;33.91;28.09
55604;BME280;41468;48.838;9.330;2023-07-08T13:57:15;98414.72;;;33.59;27.39
55604;BME280;41468;48.838;9.330;2023-07-08T13:59:42;98416.28;;;33.91;28.56
55604;BME280;41468;48.838;9.330;2023-07-08T14:02:19;98407.78;;;33.96;28.74
55604;BME280;41468;48.838;9.330;2023-07-08T14:04:47;98408.03;;;33.57;28.05
55604;BME280;41468;48.838;9.330;2023-07-08T14:07:21;98399.13;;;33.83;27.98
55604;BME280;41468;48.838;9.330;2023-07-08T14:09:48;98406.59;;;33.80;28.63
55604;BME280;41468;48.838;9.330;2023-07-08T14:12:14;98403.16;;;33.93;27.93
55604;BME280;41468;48.838;9.330;2023-07-08T14:14:41;98392.28;;;33.67;28.72
55604;BME280;41468;48.838;9.330;2023-07-08T14:17:23;98384.00;;;33.69;28.59
55604;BME280;41468;48.838;9.330;2023-07-08T14:19:50;98384.00;;;33.69;28.93
55604;BME280;41468;48.838;9.330;2023-07-08T14:22:30;98388.81;;;33.80;27.99
55604;BME280;41468;48.838;9.330;2023-07-08T14:25:08;98389.97;;;33.65;28.44
55604;BME280;41468;48.838;9.330;2023-07-08T14:27:40;98395.91;;;33.62;28.52
55604;BME280;41468;48.838;9.330;2023-07-08T14:30:09;98392.88;;;33.54;29.45
55604;BME280;41468;48.838;9.330;2023-07-08T14:32:36;98389.00;;;33.52;28.65
55604;BME280;41468;48.838;9.330;2023-07-08T14:37:43;98384.25;;;33.71;29.08
55604;BME280;41468;48.838;9.330;2023-07-08T14:40:22;98372.84;;;33.82;29.11
55604;BME280;41468;48.838;9.330;2023-07-08T14:42:59;98382.31;;;33.91;29.29
55604;BME280;41468;48.838;9.330;2023-07-08T14:45:28;98385.00;;;33.77;28.93
55604;BME280;41468;48.838;9.330;2023-07-08T14:47:56;98378.44;;;33.52;29.16
55604;BME280;41468;48.838;9.330;2023-07-08T14:50:23;98386.69;;;33.56;29.59